sensor_id;sensor_type;location;lat;lon;timestamp;temperature;humidity
43581;DHT22;29175;51.030;4.606;2024-01-25T00:00:42;9.40;99.90
43581;DHT22;29175;51.030;4.606;2024-01-25T00:03:08;9.40;99.90
43581;DHT22;29175;51.030;4.606;2024-01-25T00:05:34;9.40;99.90
43581;DHT22;29175;51.030;4.606;2024-01-25T00:07:59;9.30;99.90
43581;DHT22;29175;51.030;4.606;2024-01-25T00:10:25;9.50;99.90
43581;DHT22;29175;51.030;4.606;2024-01-25T00:12:51;9.40;99.90
43581;DHT22;29175;51.030;4.606;2024-01-25T00:15:16;9.30;99.90
43581;DHT22;29175;51.030;4.606;2024-01-25T00:17:42;9.20;99.90
43581;DHT22;29175;51.030;4.606;2024-01-25T00:20:09;9.20;99.90
43581;DHT22;29175;51.030;4.606;2024-01-25T00:22:35;9.00;99.90
43581;DHT22;29175;51.030;4.606;2024-01-25T00:25:01;8.90;99.90
43581;DHT22;29175;51.030;4.606;2024-01-25T00:27:26;8.90;99.90
43581;DHT22;29175;51.030;4.606;2024-01-25T00:29:52;8.90;99.90
43581;DHT22;29175;51.030;4.606;2024-01-25T00:32:17;8.70;99.90
43581;DHT22;29175;51.030;4.606;2024-01-25T00:34:43;8.80;99.90
43581;DHT22;29175;51.030;4.606;2024-01-25T00:37:09;8.70;99.90
43581;DHT22;29175;51.030;4.606;2024-01-25T00:39:35;8.80;99.90
43581;DHT22;29175;51.030;4.606;2024-01-25T00:42:04;8.90;99.90
43581;DHT22;29175;51.030;4.606;2024-01-25T00:44:30;8.90;99.90
43581;DHT22;29175;51.030;4.606;2024-01-25T00:46:56;8.80;99.90
43581;DHT22;29175;51.030;4.606;2024-01-25T00:49:22;8.70;99.90
43581;DHT22;29175;51.030;4.606;2024-01-25T00:51:48;8.60;99.90
43581;DHT22;29175;51.030;4.606;2024-01-25T00:54:14;8.50;99.90
43581;DHT22;29175;51.030;4.606;2024-01-25T00:56:40;8.40;99.90
43581;DHT22;29175;51.030;4.606;2024-01-25T00:59:05;8.40;99.90
43581;DHT22;29175;51.030;4.606;2024-01-25T01:01:31;8.30;99.90
43581;DHT22;29175;51.030;4.606;2024-01-25T01:03:58;8.30;99.90
43581;DHT22;29175;51.030;4.606;2024-01-25T01:06:24;8.50;99.90
43581;DHT22;29175;51.030;4.606;2024-01-25T01:08:49;8.40;99.90
43581;DHT22;29175;51.030;4.606;2024-01-25T01:11:16;8.40;99.90
43581;DHT22;29175;51.030;4.606;2024-01-25T01:13:42;8.40;99.90
43581;DHT22;29175;51.030;4.606;2024-01-25T01:16:07;8.50;99.90
43581;DHT22;29175;51.030;4.606;2024-01-25T01:18:34;8.50;99.90
43581;DHT22;29175;51.030;4.606;2024-01-25T01:20:59;8.30;99.90
43581;DHT22;29175;51.030;4.606;2024-01-25T01:23:25;8.30;99.90
43581;DHT22;29175;51.030;4.606;2024-01-25T01:25:50;8.20;99.90
43581;DHT22;29175;51.030;4.606;2024-01-25T01:28:16;8.20;99.90
43581;DHT22;29175;51.030;4.606;2024-01-25T01:30:42;8.20;99.90
43581;DHT22;29175;51.030;4.606;2024-01-25T01:33:11;8.30;99.90
43581;DHT22;29175;51.030;4.606;2024-01-25T01:35:37;8.20;99.90
43581;DHT22;29175;51.030;4.606;2024-01-25T01:38:03;8.30;99.90
43581;DHT22;29175;51.030;4.606;2024-01-25T01:40:28;8.40;99.90
43581;DHT22;29175;51.030;4.606;2024-01-25T01:43:02;8.40;99.90
43581;DHT22;29175;51.030;4.606;2024-01-25T01:45:27;8.40;99.90
43581;DHT22;29175;51.030;4.606;2024-01-25T01:47:54;8.50;99.90
43581;DHT22;29175;51.030;4.606;2024-01-25T01:50:19;8.30;99.90
43581;DHT22;29175;51.030;4.606;2024-01-25T01:52:46;8.20;99.90
43581;DHT22;29175;51.030;4.606;2024-01-25T01:55:12;8.30;99.90
43581;DHT22;29175;51.030;4.606;2024-01-25T01:57:39;8.20;99.90
43581;DHT22;29175;51.030;4.606;2024-01-25T02:00:06;8.10;99.90
43581;DHT22;29175;51.030;4.606;2024-01-25T02:02:33;8.10;99.90
43581;DHT22;29175;51.030;4.606;2024-01-25T02:04:59;8.20;99.90
43581;DHT22;29175;51.030;4.606;2024-01-25T02:07:26;8.20;99.90
43581;DHT22;29175;51.030;4.606;2024-01-25T02:09:53;8.00;99.90
43581;DHT22;29175;51.030;4.606;2024-01-25T02:12:19;8.00;99.90
43581;DHT22;29175;51.030;4.606;2024-01-25T02:14:45;7.90;99.90
43581;DHT22;29175;51.030;4.606;2024-01-25T02:17:12;8.00;99.90
43581;DHT22;29175;51.030;4.606;2024-01-25T02:19:37;8.00;99.90
43581;DHT22;29175;51.030;4.606;2024-01-25T02:22:04;8.00;99.90
43581;DHT22;29175;51.030;4.606;2024-01-25T02:24:30;7.90;99.90
43581;DHT22;29175;51.030;4.606;2024-01-25T02:26:57;7.70;99.90
43581;DHT22;29175;51.030;4.606;2024-01-25T02:29:22;7.70;99.90
43581;DHT22;29175;51.030;4.606;2024-01-25T02:31:49;7.90;99.90
43581;DHT22;29175;51.030;4.606;2024-01-25T02:34:16;7.90;99.90
43581;DHT22;29175;51.030;4.606;2024-01-25T02:36:41;7.90;99.90
43581;DHT22;29175;51.030;4.606;2024-01-25T02:39:07;7.90;99.90
43581;DHT22;29175;51.030;4.606;2024-01-25T02:41:33;8.00;99.90
43581;DHT22;29175;51.030;4.606;2024-01-25T02:43:59;8.00;99.90
43581;DHT22;29175;51.030;4.606;2024-01-25T02:46:26;8.00;99.90
43581;DHT22;29175;51.030;4.606;2024-01-25T02:48:52;7.80;99.90
43581;DHT22;29175;51.030;4.606;2024-01-25T02:51:19;7.70;99.90
43581;DHT22;29175;51.030;4.606;2024-01-25T02:53:44;7.80;99.90
43581;DHT22;29175;51.030;4.606;2024-01-25T02:56:10;7.90;99.90
43581;DHT22;29175;51.030;4.606;2024-01-25T02:58:37;8.00;99.90
43581;DHT22;29175;51.030;4.606;2024-01-25T03:01:03;8.00;99.90
43581;DHT22;29175;51.030;4.606;2024-01-25T03:03:29;7.90;99.90
43581;DHT22;29175;51.030;4.606;2024-01-25T03:05:55;7.70;99.90
43581;DHT22;29175;51.030;4.606;2024-01-25T03:08:21;7.60;99.90
43581;DHT22;29175;51.030;4.606;2024-01-25T03:10:48;7.50;99.90
43581;DHT22;29175;51.030;4.606;2024-01-25T03:13:16;7.40;99.90
43581;DHT22;29175;51.030;4.606;2024-01-25T03:15:43;7.50;99.90
43581;DHT22;29175;51.030;4.606;2024-01-25T03:18:09;7.70;99.90
43581;DHT22;29175;51.030;4.606;2024-01-25T03:20:36;7.60;99.90
43581;DHT22;29175;51.030;4.606;2024-01-25T03:23:01;7.60;99.90
43581;DHT22;29175;51.030;4.606;2024-01-25T03:25:28;7.50;99.90
43581;DHT22;29175;51.030;4.606;2024-01-25T03:27:55;7.40;99.90
43581;DHT22;29175;51.030;4.606;2024-01-25T03:30:21;7.50;99.90
43581;DHT22;29175;51.030;4.606;2024-01-25T03:32:46;7.50;99.90
43581;DHT22;29175;51.030;4.606;2024-01-25T03:35:12;7.50;99.90
43581;DHT22;29175;51.030;4.606;2024-01-25T03:37:38;7.50;99.90
43581;DHT22;29175;51.030;4.606;2024-01-25T03:40:05;7.40;99.90
43581;DHT22;29175;51.030;4.606;2024-01-25T03:42:31;7.10;99.90
43581;DHT22;29175;51.030;4.606;2024-01-25T03:44:58;7.00;99.90
43581;DHT22;29175;51.030;4.606;2024-01-25T03:47:23;6.90;99.90
43581;DHT22;29175;51.030;4.606;2024-01-25T03:49:49;7.00;99.90
43581;DHT22;29175;51.030;4.606;2024-01-25T03:52:15;7.00;99.90
43581;DHT22;29175;51.030;4.606;2024-01-25T03:54:40;7.10;99.90
43581;DHT22;29175;51.030;4.606;2024-01-25T03:57:06;7.10;99.90
43581;DHT22;29175;51.030;4.606;2024-01-25T03:59:32;7.00;99.90
43581;DHT22;29175;51.030;4.606;2024-01-25T04:01:59;6.80;99.90
43581;DHT22;29175;51.030;4.606;2024-01-25T04:04:27;6.70;99.90
43581;DHT22;29175;51.030;4.606;2024-01-25T04:06:53;6.50;99.90
43581;DHT22;29175;51.030;4.606;2024-01-25T04:09:20;6.60;99.90
43581;DHT22;29175;51.030;4.606;2024-01-25T04:11:46;6.70;99.90
43581;DHT22;29175;51.030;4.606;2024-01-25T04:14:11;6.60;99.90
43581;DHT22;29175;51.030;4.606;2024-01-25T04:16:37;6.40;99.90
43581;DHT22;29175;51.030;4.606;2024-01-25T04:19:03;6.10;99.90
43581;DHT22;29175;51.030;4.606;2024-01-25T04:21:29;6.30;99.90
43581;DHT22;29175;51.030;4.606;2024-01-25T04:23:55;6.40;99.90
43581;DHT22;29175;51.030;4.606;2024-01-25T04:26:20;6.40;99.90
43581;DHT22;29175;51.030;4.606;2024-01-25T04:28:46;6.50;99.90
43581;DHT22;29175;51.030;4.606;2024-01-25T04:31:12;6.60;99.90
43581;DHT22;29175;51.030;4.606;2024-01-25T04:33:39;6.70;99.90
43581;DHT22;29175;51.030;4.606;2024-01-25T04:36:05;6.70;99.90
43581;DHT22;29175;51.030;4.606;2024-01-25T04:38:32;6.70;99.90
43581;DHT22;29175;51.030;4.606;2024-01-25T04:40:59;6.70;99.90
43581;DHT22;29175;51.030;4.606;2024-01-25T04:43:24;6.50;99.90
43581;DHT22;29175;51.030;4.606;2024-01-25T04:45:56;6.50;99.90
43581;DHT22;29175;51.030;4.606;2024-01-25T04:48:21;6.60;99.90
43581;DHT22;29175;51.030;4.606;2024-01-25T04:50:48;6.60;99.90
43581;DHT22;29175;51.030;4.606;2024-01-25T04:53:15;6.70;99.90
43581;DHT22;29175;51.030;4.606;2024-01-25T04:55:40;6.70;99.90
43581;DHT22;29175;51.030;4.606;2024-01-25T04:58:06;6.30;99.90
43581;DHT22;29175;51.030;4.606;2024-01-25T05:00:31;6.20;99.90
43581;DHT22;29175;51.030;4.606;2024-01-25T05:02:57;6.30;99.90
43581;DHT22;29175;51.030;4.606;2024-01-25T05:05:24;6.40;99.90
43581;DHT22;29175;51.030;4.606;2024-01-25T05:07:50;6.50;99.90
43581;DHT22;29175;51.030;4.606;2024-01-25T05:10:16;6.40;99.90
43581;DHT22;29175;51.030;4.606;2024-01-25T05:12:42;6.30;99.90
43581;DHT22;29175;51.030;4.606;2024-01-25T05:15:08;6.00;99.90
43581;DHT22;29175;51.030;4.606;2024-01-25T05:17:34;6.10;99.90
43581;DHT22;29175;51.030;4.606;2024-01-25T05:20:00;6.20;99.90
43581;DHT22;29175;51.030;4.606;2024-01-25T05:22:25;6.20;99.90
43581;DHT22;29175;51.030;4.606;2024-01-25T05:24:51;6.20;99.90
43581;DHT22;29175;51.030;4.606;2024-01-25T05:27:17;6.30;99.90
43581;DHT22;29175;51.030;4.606;2024-01-25T05:29:44;6.10;99.90
43581;DHT22;29175;51.030;4.606;2024-01-25T05:32:10;5.70;99.90
43581;DHT22;29175;51.030;4.606;2024-01-25T05:34:36;5.80;99.90
43581;DHT22;29175;51.030;4.606;2024-01-25T05:37:01;5.80;99.90
43581;DHT22;29175;51.030;4.606;2024-01-25T05:39:27;5.50;99.90
43581;DHT22;29175;51.030;4.606;2024-01-25T05:41:53;5.60;99.90
43581;DHT22;29175;51.030;4.606;2024-01-25T05:44:18;5.60;99.90
43581;DHT22;29175;51.030;4.606;2024-01-25T05:46:44;5.70;99.90
43581;DHT22;29175;51.030;4.606;2024-01-25T05:49:16;5.80;99.90
43581;DHT22;29175;51.030;4.606;2024-01-25T05:51:41;6.00;99.90
43581;DHT22;29175;51.030;4.606;2024-01-25T05:54:07;6.00;99.90
43581;DHT22;29175;51.030;4.606;2024-01-25T05:56:33;6.10;99.90
43581;DHT22;29175;51.030;4.606;2024-01-25T05:58:58;6.10;99.90
43581;DHT22;29175;51.030;4.606;2024-01-25T06:01:25;6.00;99.90
43581;DHT22;29175;51.030;4.606;2024-01-25T06:03:51;5.70;99.90
43581;DHT22;29175;51.030;4.606;2024-01-25T06:06:17;5.80;99.90
43581;DHT22;29175;51.030;4.606;2024-01-25T06:08:44;5.90;99.90
43581;DHT22;29175;51.030;4.606;2024-01-25T06:13:38;6.10;99.90
43581;DHT22;29175;51.030;4.606;2024-01-25T06:16:04;6.10;99.90
43581;DHT22;29175;51.030;4.606;2024-01-25T06:18:29;6.10;99.90
43581;DHT22;29175;51.030;4.606;2024-01-25T06:20:56;6.10;99.90
43581;DHT22;29175;51.030;4.606;2024-01-25T06:23:22;6.10;99.90
43581;DHT22;29175;51.030;4.606;2024-01-25T06:25:48;6.00;99.90
43581;DHT22;29175;51.030;4.606;2024-01-25T06:28:15;6.10;99.90
43581;DHT22;29175;51.030;4.606;2024-01-25T06:30:40;6.10;99.90
43581;DHT22;29175;51.030;4.606;2024-01-25T06:33:06;6.00;99.90
43581;DHT22;29175;51.030;4.606;2024-01-25T06:35:31;6.00;99.90
43581;DHT22;29175;51.030;4.606;2024-01-25T06:37:57;6.10;99.90
43581;DHT22;29175;51.030;4.606;2024-01-25T06:40:23;6.20;99.90
43581;DHT22;29175;51.030;4.606;2024-01-25T06:42:48;6.30;99.90
43581;DHT22;29175;51.030;4.606;2024-01-25T06:45:16;6.30;99.90
43581;DHT22;29175;51.030;4.606;2024-01-25T06:47:42;6.30;99.90
43581;DHT22;29175;51.030;4.606;2024-01-25T06:50:08;6.40;99.90
43581;DHT22;29175;51.030;4.606;2024-01-25T06:52:34;6.30;99.90
43581;DHT22;29175;51.030;4.606;2024-01-25T06:55:00;6.30;99.90
43581;DHT22;29175;51.030;4.606;2024-01-25T06:57:26;6.40;99.90
43581;DHT22;29175;51.030;4.606;2024-01-25T06:59:51;6.40;99.90
43581;DHT22;29175;51.030;4.606;2024-01-25T07:02:17;6.50;99.90
43581;DHT22;29175;51.030;4.606;2024-01-25T07:04:42;6.50;99.90
43581;DHT22;29175;51.030;4.606;2024-01-25T07:07:09;6.40;99.90
43581;DHT22;29175;51.030;4.606;2024-01-25T07:09:41;6.20;99.90
43581;DHT22;29175;51.030;4.606;2024-01-25T07:12:06;6.30;99.90
43581;DHT22;29175;51.030;4.606;2024-01-25T07:14:34;6.50;99.90
43581;DHT22;29175;51.030;4.606;2024-01-25T07:17:00;6.50;99.90
43581;DHT22;29175;51.030;4.606;2024-01-25T07:19:26;6.40;99.90
43581;DHT22;29175;51.030;4.606;2024-01-25T07:21:52;6.40;99.90
43581;DHT22;29175;51.030;4.606;2024-01-25T07:24:18;6.30;99.90
43581;DHT22;29175;51.030;4.606;2024-01-25T07:26:45;6.40;99.90
43581;DHT22;29175;51.030;4.606;2024-01-25T07:29:10;6.50;99.90
43581;DHT22;29175;51.030;4.606;2024-01-25T07:31:36;6.30;99.90
43581;DHT22;29175;51.030;4.606;2024-01-25T07:34:02;6.30;99.90
43581;DHT22;29175;51.030;4.606;2024-01-25T07:36:28;6.30;99.90
43581;DHT22;29175;51.030;4.606;2024-01-25T07:38:53;6.30;99.90
43581;DHT22;29175;51.030;4.606;2024-01-25T07:41:20;6.30;99.90
43581;DHT22;29175;51.030;4.606;2024-01-25T07:43:46;6.40;99.90
43581;DHT22;29175;51.030;4.606;2024-01-25T07:46:13;6.40;99.90
43581;DHT22;29175;51.030;4.606;2024-01-25T07:48:40;6.30;99.90
43581;DHT22;29175;51.030;4.606;2024-01-25T07:51:12;6.30;99.90
43581;DHT22;29175;51.030;4.606;2024-01-25T07:53:38;6.30;99.90
43581;DHT22;29175;51.030;4.606;2024-01-25T07:56:06;6.00;99.90
43581;DHT22;29175;51.030;4.606;2024-01-25T07:58:31;5.70;99.90
43581;DHT22;29175;51.030;4.606;2024-01-25T08:00:57;5.70;99.90
43581;DHT22;29175;51.030;4.606;2024-01-25T08:03:23;5.70;99.90
43581;DHT22;29175;51.030;4.606;2024-01-25T08:05:49;5.90;99.90
43581;DHT22;29175;51.030;4.606;2024-01-25T08:08:15;6.00;99.90
43581;DHT22;29175;51.030;4.606;2024-01-25T08:10:41;6.00;99.90
43581;DHT22;29175;51.030;4.606;2024-01-25T08:13:06;5.90;99.90
43581;DHT22;29175;51.030;4.606;2024-01-25T08:15:32;6.00;99.90
43581;DHT22;29175;51.030;4.606;2024-01-25T08:17:57;6.20;99.90
43581;DHT22;29175;51.030;4.606;2024-01-25T08:20:23;6.40;99.90
43581;DHT22;29175;51.030;4.606;2024-01-25T08:22:50;6.50;99.90
43581;DHT22;29175;51.030;4.606;2024-01-25T08:25:15;6.60;99.90
43581;DHT22;29175;51.030;4.606;2024-01-25T08:27:42;6.20;99.90
43581;DHT22;29175;51.030;4.606;2024-01-25T08:30:08;6.10;99.90
43581;DHT22;29175;51.030;4.606;2024-01-25T08:32:34;6.40;99.90
43581;DHT22;29175;51.030;4.606;2024-01-25T08:34:59;6.30;99.90
43581;DHT22;29175;51.030;4.606;2024-01-25T08:37:25;6.40;99.90
43581;DHT22;29175;51.030;4.606;2024-01-25T08:39:50;6.60;99.90
43581;DHT22;29175;51.030;4.606;2024-01-25T08:42:18;6.70;99.90
43581;DHT22;29175;51.030;4.606;2024-01-25T08:44:45;6.80;99.90
43581;DHT22;29175;51.030;4.606;2024-01-25T08:47:17;6.90;99.90
43581;DHT22;29175;51.030;4.606;2024-01-25T08:49:43;7.00;99.90
43581;DHT22;29175;51.030;4.606;2024-01-25T08:52:09;7.30;99.90
43581;DHT22;29175;51.030;4.606;2024-01-25T08:54:35;7.40;99.90
43581;DHT22;29175;51.030;4.606;2024-01-25T08:57:04;7.50;99.90
43581;DHT22;29175;51.030;4.606;2024-01-25T08:59:31;7.70;99.90
43581;DHT22;29175;51.030;4.606;2024-01-25T09:01:59;7.80;99.90
43581;DHT22;29175;51.030;4.606;2024-01-25T09:04:24;7.70;99.90
43581;DHT22;29175;51.030;4.606;2024-01-25T09:06:50;7.70;99.90
43581;DHT22;29175;51.030;4.606;2024-01-25T09:09:16;7.70;99.90
43581;DHT22;29175;51.030;4.606;2024-01-25T09:11:41;7.80;99.90
43581;DHT22;29175;51.030;4.606;2024-01-25T09:14:07;7.90;99.90
43581;DHT22;29175;51.030;4.606;2024-01-25T09:16:33;7.60;99.90
43581;DHT22;29175;51.030;4.606;2024-01-25T09:18:58;7.60;99.90
43581;DHT22;29175;51.030;4.606;2024-01-25T09:21:24;7.60;99.90
43581;DHT22;29175;51.030;4.606;2024-01-25T09:23:50;7.70;99.90
43581;DHT22;29175;51.030;4.606;2024-01-25T09:26:15;7.70;99.90
43581;DHT22;29175;51.030;4.606;2024-01-25T09:28:41;7.50;99.90
43581;DHT22;29175;51.030;4.606;2024-01-25T09:31:06;7.70;99.90
43581;DHT22;29175;51.030;4.606;2024-01-25T09:33:32;7.70;99.90
43581;DHT22;29175;51.030;4.606;2024-01-25T09:35:59;7.80;99.90
43581;DHT22;29175;51.030;4.606;2024-01-25T09:38:25;8.00;99.90
43581;DHT22;29175;51.030;4.606;2024-01-25T09:40:51;7.90;99.90
43581;DHT22;29175;51.030;4.606;2024-01-25T09:43:19;8.10;99.90
43581;DHT22;29175;51.030;4.606;2024-01-25T09:45:52;8.30;99.90
43581;DHT22;29175;51.030;4.606;2024-01-25T09:48:20;8.30;99.90
43581;DHT22;29175;51.030;4.606;2024-01-25T09:50:47;8.00;99.90
43581;DHT22;29175;51.030;4.606;2024-01-25T09:53:14;8.10;99.90
43581;DHT22;29175;51.030;4.606;2024-01-25T09:55:42;8.10;99.90
43581;DHT22;29175;51.030;4.606;2024-01-25T09:58:09;8.20;99.90
43581;DHT22;29175;51.030;4.606;2024-01-25T10:00:37;8.20;99.90
43581;DHT22;29175;51.030;4.606;2024-01-25T10:03:03;8.30;99.90
43581;DHT22;29175;51.030;4.606;2024-01-25T10:05:29;8.30;99.90
43581;DHT22;29175;51.030;4.606;2024-01-25T10:07:56;8.40;99.90
43581;DHT22;29175;51.030;4.606;2024-01-25T10:10:26;8.60;99.90
43581;DHT22;29175;51.030;4.606;2024-01-25T10:12:51;8.70;99.90
43581;DHT22;29175;51.030;4.606;2024-01-25T10:15:20;8.40;99.90
43581;DHT22;29175;51.030;4.606;2024-01-25T10:17:46;8.40;99.90
43581;DHT22;29175;51.030;4.606;2024-01-25T10:20:13;8.30;99.90
43581;DHT22;29175;51.030;4.606;2024-01-25T10:22:42;8.40;99.90
43581;DHT22;29175;51.030;4.606;2024-01-25T10:25:15;8.30;99.90
43581;DHT22;29175;51.030;4.606;2024-01-25T10:27:41;8.30;99.90
43581;DHT22;29175;51.030;4.606;2024-01-25T10:30:07;8.20;99.90
43581;DHT22;29175;51.030;4.606;2024-01-25T10:32:36;8.10;99.90
43581;DHT22;29175;51.030;4.606;2024-01-25T10:35:02;8.00;99.90
43581;DHT22;29175;51.030;4.606;2024-01-25T10:37:29;8.30;99.90
43581;DHT22;29175;51.030;4.606;2024-01-25T10:39:57;8.50;99.90
43581;DHT22;29175;51.030;4.606;2024-01-25T10:42:24;8.40;99.90
43581;DHT22;29175;51.030;4.606;2024-01-25T10:44:50;8.50;99.90
43581;DHT22;29175;51.030;4.606;2024-01-25T10:47:17;8.80;99.90
43581;DHT22;29175;51.030;4.606;2024-01-25T10:49:46;8.90;99.90
43581;DHT22;29175;51.030;4.606;2024-01-25T10:52:14;8.70;99.90
43581;DHT22;29175;51.030;4.606;2024-01-25T10:54:40;8.70;99.90
43581;DHT22;29175;51.030;4.606;2024-01-25T10:57:06;8.70;99.90
43581;DHT22;29175;51.030;4.606;2024-01-25T10:59:32;8.50;99.90
43581;DHT22;29175;51.030;4.606;2024-01-25T11:01:58;8.70;99.90
43581;DHT22;29175;51.030;4.606;2024-01-25T11:04:25;8.80;99.90
43581;DHT22;29175;51.030;4.606;2024-01-25T11:06:52;8.90;99.90
43581;DHT22;29175;51.030;4.606;2024-01-25T11:09:18;9.10;99.90
43581;DHT22;29175;51.030;4.606;2024-01-25T11:11:48;9.30;99.90
43581;DHT22;29175;51.030;4.606;2024-01-25T11:14:15;9.30;99.90
43581;DHT22;29175;51.030;4.606;2024-01-25T11:16:42;9.40;99.90
43581;DHT22;29175;51.030;4.606;2024-01-25T11:19:20;9.50;99.90
43581;DHT22;29175;51.030;4.606;2024-01-25T11:21:47;9.60;99.90
43581;DHT22;29175;51.030;4.606;2024-01-25T11:24:16;9.60;99.90
43581;DHT22;29175;51.030;4.606;2024-01-25T11:26:43;9.50;99.90
43581;DHT22;29175;51.030;4.606;2024-01-25T11:29:16;9.40;99.90
43581;DHT22;29175;51.030;4.606;2024-01-25T11:31:47;9.60;99.90
43581;DHT22;29175;51.030;4.606;2024-01-25T11:34:14;9.40;99.90
43581;DHT22;29175;51.030;4.606;2024-01-25T11:36:40;9.50;99.90
43581;DHT22;29175;51.030;4.606;2024-01-25T11:39:10;9.60;99.90
43581;DHT22;29175;51.030;4.606;2024-01-25T11:41:36;9.80;99.90
43581;DHT22;29175;51.030;4.606;2024-01-25T11:44:03;9.90;99.90
43581;DHT22;29175;51.030;4.606;2024-01-25T11:46:30;10.00;99.90
43581;DHT22;29175;51.030;4.606;2024-01-25T11:48:55;10.00;99.90
43581;DHT22;29175;51.030;4.606;2024-01-25T11:51:22;10.00;99.90
43581;DHT22;29175;51.030;4.606;2024-01-25T11:53:48;10.20;99.90
43581;DHT22;29175;51.030;4.606;2024-01-25T11:56:21;10.30;99.90
43581;DHT22;29175;51.030;4.606;2024-01-25T11:58:48;10.40;99.90
43581;DHT22;29175;51.030;4.606;2024-01-25T12:01:14;10.40;99.90
43581;DHT22;29175;51.030;4.606;2024-01-25T12:03:40;10.40;99.90
43581;DHT22;29175;51.030;4.606;2024-01-25T12:06:07;10.20;99.90
43581;DHT22;29175;51.030;4.606;2024-01-25T12:08:36;10.20;99.90
43581;DHT22;29175;51.030;4.606;2024-01-25T12:11:07;10.40;99.90
43581;DHT22;29175;51.030;4.606;2024-01-25T12:13:38;10.60;99.90
43581;DHT22;29175;51.030;4.606;2024-01-25T12:16:04;10.50;99.90
43581;DHT22;29175;51.030;4.606;2024-01-25T12:18:30;10.60;99.90
43581;DHT22;29175;51.030;4.606;2024-01-25T12:21:04;10.70;99.90
43581;DHT22;29175;51.030;4.606;2024-01-25T12:23:33;10.70;99.90
43581;DHT22;29175;51.030;4.606;2024-01-25T12:26:02;10.70;99.90
43581;DHT22;29175;51.030;4.606;2024-01-25T12:28:29;10.70;99.90
43581;DHT22;29175;51.030;4.606;2024-01-25T12:30:56;10.50;99.90
43581;DHT22;29175;51.030;4.606;2024-01-25T12:33:22;10.50;99.90
43581;DHT22;29175;51.030;4.606;2024-01-25T12:35:47;10.70;99.90
43581;DHT22;29175;51.030;4.606;2024-01-25T12:38:13;10.80;99.90
43581;DHT22;29175;51.030;4.606;2024-01-25T12:40:39;10.80;99.90
43581;DHT22;29175;51.030;4.606;2024-01-25T12:43:06;10.70;99.90
43581;DHT22;29175;51.030;4.606;2024-01-25T12:45:33;10.80;99.90
43581;DHT22;29175;51.030;4.606;2024-01-25T12:47:59;10.80;99.90
43581;DHT22;29175;51.030;4.606;2024-01-25T12:50:25;10.90;99.90
43581;DHT22;29175;51.030;4.606;2024-01-25T12:52:51;10.90;99.90
43581;DHT22;29175;51.030;4.606;2024-01-25T12:55:16;10.90;99.90
43581;DHT22;29175;51.030;4.606;2024-01-25T12:57:42;10.90;99.90
43581;DHT22;29175;51.030;4.606;2024-01-25T13:00:08;10.80;99.90
43581;DHT22;29175;51.030;4.606;2024-01-25T13:02:33;10.70;99.90
43581;DHT22;29175;51.030;4.606;2024-01-25T13:04:59;10.70;99.90
43581;DHT22;29175;51.030;4.606;2024-01-25T13:07:25;10.70;99.90
43581;DHT22;29175;51.030;4.606;2024-01-25T13:09:51;10.90;99.90
43581;DHT22;29175;51.030;4.606;2024-01-25T13:12:17;11.00;99.90
43581;DHT22;29175;51.030;4.606;2024-01-25T13:14:43;11.00;99.90
43581;DHT22;29175;51.030;4.606;2024-01-25T13:17:08;10.90;99.90
43581;DHT22;29175;51.030;4.606;2024-01-25T13:19:34;10.80;99.90
43581;DHT22;29175;51.030;4.606;2024-01-25T13:22:00;10.70;99.90
43581;DHT22;29175;51.030;4.606;2024-01-25T13:24:25;10.70;99.90
43581;DHT22;29175;51.030;4.606;2024-01-25T13:26:51;10.80;99.90
43581;DHT22;29175;51.030;4.606;2024-01-25T13:29:17;10.60;99.90
43581;DHT22;29175;51.030;4.606;2024-01-25T13:31:44;10.60;99.90
43581;DHT22;29175;51.030;4.606;2024-01-25T13:34:10;10.70;99.90
43581;DHT22;29175;51.030;4.606;2024-01-25T13:36:35;10.70;99.90
43581;DHT22;29175;51.030;4.606;2024-01-25T13:39:02;10.80;99.90
43581;DHT22;29175;51.030;4.606;2024-01-25T13:41:30;10.90;99.90
43581;DHT22;29175;51.030;4.606;2024-01-25T13:43:56;11.10;99.90
43581;DHT22;29175;51.030;4.606;2024-01-25T13:46:22;11.10;99.90
43581;DHT22;29175;51.030;4.606;2024-01-25T13:48:47;11.30;99.90
43581;DHT22;29175;51.030;4.606;2024-01-25T13:51:14;11.30;99.90
43581;DHT22;29175;51.030;4.606;2024-01-25T13:53:41;11.40;99.90
43581;DHT22;29175;51.030;4.606;2024-01-25T13:56:06;11.40;99.90
43581;DHT22;29175;51.030;4.606;2024-01-25T13:58:32;11.30;99.90
43581;DHT22;29175;51.030;4.606;2024-01-25T14:00:57;11.30;99.90
43581;DHT22;29175;51.030;4.606;2024-01-25T14:03:24;11.20;99.90
43581;DHT22;29175;51.030;4.606;2024-01-25T14:05:51;11.10;99.90
43581;DHT22;29175;51.030;4.606;2024-01-25T14:08:17;11.00;99.90
43581;DHT22;29175;51.030;4.606;2024-01-25T14:10:44;11.10;99.90
43581;DHT22;29175;51.030;4.606;2024-01-25T14:13:12;11.20;99.90
43581;DHT22;29175;51.030;4.606;2024-01-25T14:15:37;11.20;99.90
43581;DHT22;29175;51.030;4.606;2024-01-25T14:18:03;11.20;99.90
43581;DHT22;29175;51.030;4.606;2024-01-25T14:20:29;11.20;99.90
43581;DHT22;29175;51.030;4.606;2024-01-25T14:22:54;11.20;99.90
43581;DHT22;29175;51.030;4.606;2024-01-25T14:25:20;11.10;99.90
43581;DHT22;29175;51.030;4.606;2024-01-25T14:27:46;11.00;99.90
43581;DHT22;29175;51.030;4.606;2024-01-25T14:30:14;11.00;99.90
43581;DHT22;29175;51.030;4.606;2024-01-25T14:32:41;10.90;99.90
43581;DHT22;29175;51.030;4.606;2024-01-25T14:35:07;11.00;99.90
43581;DHT22;29175;51.030;4.606;2024-01-25T14:37:33;11.10;99.90
43581;DHT22;29175;51.030;4.606;2024-01-25T14:39:59;11.30;99.90
43581;DHT22;29175;51.030;4.606;2024-01-25T14:42:24;11.30;99.90
43581;DHT22;29175;51.030;4.606;2024-01-25T14:44:50;11.30;99.90
43581;DHT22;29175;51.030;4.606;2024-01-25T14:47:16;11.40;99.90
43581;DHT22;29175;51.030;4.606;2024-01-25T14:49:46;11.40;99.90
43581;DHT22;29175;51.030;4.606;2024-01-25T14:52:12;11.30;99.90
43581;DHT22;29175;51.030;4.606;2024-01-25T14:54:39;11.40;99.90
43581;DHT22;29175;51.030;4.606;2024-01-25T14:57:05;11.40;99.90
43581;DHT22;29175;51.030;4.606;2024-01-25T14:59:31;11.40;99.90
43581;DHT22;29175;51.030;4.606;2024-01-25T15:01:56;11.40;99.90
43581;DHT22;29175;51.030;4.606;2024-01-25T15:04:23;11.30;99.90
43581;DHT22;29175;51.030;4.606;2024-01-25T15:06:51;11.30;99.90
43581;DHT22;29175;51.030;4.606;2024-01-25T15:09:16;11.10;99.90
43581;DHT22;29175;51.030;4.606;2024-01-25T15:11:42;11.20;99.90
43581;DHT22;29175;51.030;4.606;2024-01-25T15:14:08;11.10;99.90
43581;DHT22;29175;51.030;4.606;2024-01-25T15:16:33;11.00;99.90
43581;DHT22;29175;51.030;4.606;2024-01-25T15:19:00;11.00;99.90
43581;DHT22;29175;51.030;4.606;2024-01-25T15:21:27;11.00;99.90
43581;DHT22;29175;51.030;4.606;2024-01-25T15:23:53;10.80;99.90
43581;DHT22;29175;51.030;4.606;2024-01-25T15:26:19;10.80;99.90
43581;DHT22;29175;51.030;4.606;2024-01-25T15:28:46;10.60;99.90
43581;DHT22;29175;51.030;4.606;2024-01-25T15:31:12;10.70;99.90
43581;DHT22;29175;51.030;4.606;2024-01-25T15:33:39;10.60;99.90
43581;DHT22;29175;51.030;4.606;2024-01-25T15:36:05;10.70;99.90
43581;DHT22;29175;51.030;4.606;2024-01-25T15:38:31;10.70;99.90